Time;durP1;ratioP1;P1;durP2;ratioP2;P2;SDS_P1;SDS_P2;PMS_P1;PMS_P2;Temp;Humidity;BMP_temperature;BMP_pressure;BME280_temperature;BME280_humidity;BME280_pressure;Samples;Min_cycle;Max_cycle;Signal;HPM_P1;HPM_P2
2022/06/21 00:01:19;;;;;;;4.87;4.30;;;12.20;1.00;;;;;;5034711;28;20398;-73
2022/06/21 00:03:47;;;;;;;7.50;3.80;;;12.20;1.00;;;;;;5053089;28;20467;-71
2022/06/21 00:06:20;;;;;;;11.30;3.90;;;12.20;1.00;;;;;;5038491;28;20632;-69
2022/06/21 00:08:46;;;;;;;4.70;3.77;;;12.20;1.00;;;;;;5038145;28;20411;-68
2022/06/21 00:11:33;;;;;;;3.53;3.23;;;12.20;1.00;;;;;;5038067;28;20748;-73
2022/06/21 00:13:58;;;;;;;3.70;3.40;;;12.20;1.00;;;;;;5056391;28;20399;-73
2022/06/21 00:16:26;;;;;;;3.90;3.57;;;12.10;1.00;;;;;;5056179;28;20379;-72
2022/06/21 00:18:53;;;;;;;5.07;3.90;;;12.10;1.00;;;;;;5053962;28;20215;-68
2022/06/21 00:21:25;;;;;;;8.80;4.40;;;12.10;1.00;;;;;;5056136;28;20463;-68
2022/06/21 00:23:52;;;;;;;4.77;3.67;;;12.00;1.00;;;;;;5055913;28;20432;-73
2022/06/21 00:26:21;;;;;;;5.33;3.43;;;12.00;1.00;;;;;;5037681;28;20436;-68
2022/06/21 00:28:47;;;;;;;5.40;3.50;;;12.00;1.00;;;;;;5055281;28;20441;-73
2022/06/21 00:31:26;;;;;;;6.30;3.43;;;12.10;1.00;;;;;;5038417;28;20549;-69
2022/06/21 00:33:53;;;;;;;3.73;3.10;;;12.10;1.00;;;;;;5056069;28;20174;-73
2022/06/21 00:36:33;;;;;;;3.63;3.30;;;12.10;1.00;;;;;;5055801;28;20413;-68
2022/06/21 00:39:00;;;;;;;4.33;3.93;;;12.10;1.00;;;;;;5054291;28;20443;-68
2022/06/21 00:41:47;;;;;;;3.27;3.07;;;12.10;1.00;;;;;;5055650;28;20539;-68
2022/06/21 00:44:40;;;;;;;3.33;3.03;;;12.10;1.00;;;;;;5037820;28;20391;-69
2022/06/21 00:47:12;;;;;;;7.37;3.70;;;12.00;1.00;;;;;;5032728;28;20500;-70
2022/06/21 00:49:56;;;;;;;3.70;3.37;;;12.00;1.00;;;;;;5055604;28;20457;-73
2022/06/21 00:52:52;;;;;;;4.43;3.60;;;12.00;1.00;;;;;;5055730;28;20379;-69
2022/06/21 00:55:59;;;;;;;5.20;3.63;;;11.90;1.00;;;;;;5037941;28;20395;-73
2022/06/21 00:58:26;;;;;;;5.53;3.43;;;11.90;1.00;;;;;;5034247;28;20451;-69
2022/06/21 01:00:57;;;;;;;6.40;3.37;;;11.90;1.00;;;;;;5053650;28;21018;-73
2022/06/21 01:03:42;;;;;;;7.30;3.67;;;11.90;1.00;;;;;;5054065;28;20432;-72
2022/06/21 01:06:33;;;;;;;2.90;2.70;;;11.90;1.00;;;;;;5037844;28;20409;-68
2022/06/21 01:09:18;;;;;;;4.40;2.87;;;12.00;1.00;;;;;;5055351;28;20399;-73
2022/06/21 01:11:52;;;;;;;3.87;3.47;;;12.00;1.00;;;;;;5037516;28;20416;-69
2022/06/21 01:14:22;;;;;;;4.40;3.57;;;11.90;1.00;;;;;;5055385;28;20380;-68
2022/06/21 01:16:48;;;;;;;7.33;3.70;;;11.90;1.00;;;;;;5052995;28;20490;-73
2022/06/21 01:19:38;;;;;;;4.33;2.83;;;12.00;1.00;;;;;;5054807;28;20422;-68
2022/06/21 01:22:30;;;;;;;5.57;3.03;;;11.90;1.00;;;;;;5053406;28;20449;-68
2022/06/21 01:25:20;;;;;;;4.57;2.70;;;11.90;1.00;;;;;;5055210;28;20395;-73
2022/06/21 01:27:46;;;;;;;5.70;3.70;;;11.90;1.00;;;;;;5054009;28;20427;-73
2022/06/21 01:30:12;;;;;;;2.80;2.50;;;11.90;1.00;;;;;;5037027;28;20466;-72
2022/06/21 01:32:38;;;;;;;8.63;3.73;;;11.90;1.00;;;;;;5054940;28;20509;-73
2022/06/21 01:35:11;;;;;;;4.40;3.13;;;11.90;1.00;;;;;;5036953;28;20960;-71
2022/06/21 01:37:38;;;;;;;5.43;3.13;;;11.90;1.00;;;;;;5053312;28;20671;-68
2022/06/21 01:40:12;;;;;;;6.03;3.00;;;11.90;1.00;;;;;;5054631;28;20431;-68
2022/06/21 01:42:49;;;;;;;3.80;3.13;;;11.80;1.00;;;;;;5052977;28;20431;-73
2022/06/21 01:45:24;;;;;;;4.03;3.63;;;11.80;1.00;;;;;;5054726;28;20408;-73
2022/06/21 01:48:05;;;;;;;4.90;3.07;;;11.80;1.00;;;;;;5053538;28;20492;-71
2022/06/21 01:50:31;;;;;;;5.20;3.50;;;11.80;1.00;;;;;;5054627;28;20428;-73
2022/06/21 01:52:57;;;;;;;12.70;3.60;;;11.80;1.00;;;;;;5054450;28;20405;-69
2022/06/21 01:55:28;;;;;;;11.00;4.03;;;11.80;1.00;;;;;;5054131;28;21007;-68
2022/06/21 01:57:56;;;;;;;7.87;3.97;;;11.80;1.00;;;;;;5034615;28;20210;-68
2022/06/21 02:00:22;;;;;;;4.13;3.57;;;11.90;1.00;;;;;;5036830;28;20441;-73
2022/06/21 02:02:53;;;;;;;4.10;3.73;;;11.80;1.00;;;;;;5036596;28;20500;-68
2022/06/21 02:05:53;;;;;;;8.00;3.17;;;11.80;1.00;;;;;;5054298;28;20174;-73
2022/06/21 02:08:24;;;;;;;4.77;3.27;;;11.90;1.00;;;;;;5036038;28;20445;-68
2022/06/21 02:10:59;;;;;;;10.30;3.63;;;11.90;1.00;;;;;;5054239;28;20413;-74
2022/06/21 02:13:37;;;;;;;8.87;2.90;;;11.90;1.00;;;;;;5051784;28;20441;-67
2022/06/21 02:16:16;;;;;;;4.53;3.20;;;11.90;1.00;;;;;;5053991;28;20883;-68
2022/06/21 02:18:48;;;;;;;4.77;4.23;;;11.90;1.00;;;;;;5053213;28;20436;-74
2022/06/21 02:21:21;;;;;;;4.90;3.00;;;11.90;1.00;;;;;;5053991;28;20758;-73
2022/06/21 02:23:51;;;;;;;6.00;3.00;;;11.90;1.00;;;;;;5053905;28;20415;-73
2022/06/21 02:26:17;;;;;;;10.50;3.63;;;11.90;1.00;;;;;;5053514;28;20534;-71
2022/06/21 02:28:45;;;;;;;5.57;4.63;;;11.80;1.00;;;;;;5035076;28;20944;-73
2022/06/21 02:31:11;;;;;;;11.03;3.40;;;11.80;6.00;;;;;;5053229;28;20167;-74
2022/06/21 02:33:38;;;;;;;10.60;3.30;;;11.70;21.70;;;;;;5052343;28;20400;-74
2022/06/21 02:36:19;;;;;;;3.23;3.03;;;11.80;46.10;;;;;;5053707;28;20198;-68
2022/06/21 02:38:54;;;;;;;14.00;3.43;;;11.80;66.30;;;;;;5052841;28;20432;-74
2022/06/21 02:41:22;;;;;;;4.40;3.20;;;11.90;74.40;;;;;;5053584;28;20376;-68
2022/06/21 02:43:53;;;;;;;12.73;4.00;;;11.90;81.80;;;;;;5053633;28;20399;-68
2022/06/21 02:46:23;;;;;;;5.93;3.77;;;11.90;81.80;;;;;;5053361;28;20782;-68
2022/06/21 02:48:58;;;;;;;7.33;3.80;;;11.80;83.30;;;;;;5052160;28;20435;-73
2022/06/21 02:51:32;;;;;;;7.03;3.40;;;11.80;90.80;;;;;;5053475;28;20768;-74
2022/06/21 02:54:10;;;;;;;8.13;3.60;;;11.90;96.00;;;;;;5034358;28;20935;-73
2022/06/21 02:56:43;;;;;;;7.00;3.90;;;11.90;97.00;;;;;;5052330;28;20437;-73
2022/06/21 02:59:11;;;;;;;3.60;3.23;;;11.90;97.50;;;;;;5053195;28;20466;-73
2022/06/21 03:01:45;;;;;;;5.97;3.33;;;11.90;99.90;;;;;;5053445;28;20405;-73
2022/06/21 03:04:22;;;;;;;5.17;3.80;;;11.90;99.90;;;;;;5035469;28;20384;-73
2022/06/21 03:06:48;;;;;;;5.60;3.20;;;11.90;99.90;;;;;;5051752;28;20959;-73
2022/06/21 03:09:19;;;;;;;11.60;4.93;;;11.90;99.90;;;;;;5035209;28;20915;-67
2022/06/21 03:11:50;;;;;;;12.87;3.80;;;11.90;99.90;;;;;;5053205;28;20384;-67
2022/06/21 03:14:19;;;;;;;13.70;3.60;;;11.90;99.90;;;;;;5051596;28;20392;-67
2022/06/21 03:16:46;;;;;;;7.40;3.33;;;12.00;99.90;;;;;;5034074;28;20380;-67
2022/06/21 03:19:24;;;;;;;12.63;4.70;;;12.00;99.90;;;;;;5052974;28;20506;-75
2022/06/21 03:21:50;;;;;;;14.33;4.27;;;12.00;99.90;;;;;;5053037;28;20529;-68
2022/06/21 03:24:20;;;;;;;9.43;3.57;;;12.00;99.90;;;;;;5052450;28;20914;-73
2022/06/21 03:26:54;;;;;;;11.93;3.80;;;12.00;99.90;;;;;;5052015;28;20594;-68
2022/06/21 03:29:20;;;;;;;4.93;3.10;;;12.10;99.90;;;;;;5035024;28;20415;-69
2022/06/21 03:31:48;;;;;;;11.33;3.70;;;12.00;99.90;;;;;;5053060;28;20753;-69
2022/06/21 03:34:18;;;;;;;14.00;5.13;;;12.00;99.90;;;;;;5053101;28;20249;-67
2022/06/21 03:36:43;;;;;;;8.70;4.37;;;12.00;99.90;;;;;;5032858;28;20507;-73
2022/06/21 03:39:17;;;;;;;10.93;3.90;;;12.00;99.90;;;;;;5053762;28;20507;-74
2022/06/21 03:41:45;;;;;;;5.50;3.10;;;12.00;99.90;;;;;;5038958;28;20175;-71
2022/06/21 03:44:11;;;;;;;12.80;4.00;;;12.00;99.90;;;;;;5057142;28;20392;-67
2022/06/21 03:46:55;;;;;;;11.63;3.70;;;12.00;99.90;;;;;;5055984;28;20398;-67
2022/06/21 03:49:31;;;;;;;12.33;4.20;;;12.10;99.90;;;;;;5056684;28;20242;-67
2022/06/21 03:51:59;;;;;;;6.70;3.60;;;12.10;99.90;;;;;;5056861;28;20445;-72
2022/06/21 03:54:41;;;;;;;11.50;4.63;;;12.10;99.90;;;;;;5056784;28;20388;-71
2022/06/21 03:57:20;;;;;;;9.40;4.00;;;12.10;99.90;;;;;;5054759;28;20423;-68
2022/06/21 04:00:01;;;;;;;7.57;3.37;;;12.20;99.90;;;;;;5056601;28;20403;-71
2022/06/21 04:02:58;;;;;;;6.93;3.80;;;12.20;99.90;;;;;;5056587;28;20390;-72
2022/06/21 04:05:33;;;;;;;4.10;3.17;;;12.20;99.90;;;;;;5056574;28;20401;-73
2022/06/21 04:08:10;;;;;;;10.50;4.57;;;12.30;99.90;;;;;;5055588;28;20429;-73
2022/06/21 04:10:56;;;;;;;11.60;4.07;;;12.30;99.90;;;;;;5056475;28;20383;-73
2022/06/21 04:13:48;;;;;;;11.40;3.47;;;12.40;99.90;;;;;;5056384;28;20500;-73
2022/06/21 04:16:30;;;;;;;13.90;3.50;;;12.40;99.90;;;;;;5037415;28;20481;-67
2022/06/21 04:19:02;;;;;;;8.03;4.33;;;12.40;99.90;;;;;;5055841;28;20518;-72
2022/06/21 04:21:38;;;;;;;11.40;3.70;;;12.50;99.90;;;;;;5056281;28;20439;-67
2022/06/21 04:24:45;;;;;;;7.40;3.20;;;12.50;99.90;;;;;;5056189;28;20461;-66
2022/06/21 04:27:17;;;;;;;8.03;3.93;;;12.50;99.90;;;;;;5044788;28;20429;-71
2022/06/21 04:29:52;;;;;;;4.60;3.37;;;12.40;99.90;;;;;;5056081;28;20429;-67
2022/06/21 04:32:30;;;;;;;7.97;4.20;;;12.50;99.90;;;;;;5056235;28;20380;-71
2022/06/21 04:35:04;;;;;;;8.60;4.33;;;12.60;99.90;;;;;;5038154;28;20898;-67
2022/06/21 04:37:44;;;;;;;5.37;3.37;;;12.60;99.90;;;;;;5052561;28;20546;-72
2022/06/21 04:40:23;;;;;;;4.97;4.00;;;12.60;99.90;;;;;;5055848;28;20420;-72
2022/06/21 04:42:54;;;;;;;8.60;4.57;;;12.60;99.90;;;;;;5055847;28;20402;-66
2022/06/21 04:45:25;;;;;;;7.93;4.27;;;12.70;99.90;;;;;;5055703;28;20777;-67
2022/06/21 04:48:09;;;;;;;6.30;3.57;;;12.70;99.90;;;;;;5054766;28;20919;-72
2022/06/21 04:50:41;;;;;;;9.27;3.33;;;12.70;99.90;;;;;;5037527;28;20424;-72
2022/06/21 04:53:45;;;;;;;9.70;3.57;;;12.80;99.90;;;;;;5055666;28;20411;-67
2022/06/21 04:56:31;;;;;;;8.50;4.00;;;12.90;99.90;;;;;;5054137;28;20764;-68
2022/06/21 04:58:57;;;;;;;7.60;4.10;;;12.90;99.90;;;;;;5037709;28;20438;-67
2022/06/21 05:01:29;;;;;;;9.33;3.50;;;12.90;99.90;;;;;;5055461;28;20444;-72
2022/06/21 05:04:00;;;;;;;5.87;4.00;;;13.00;99.90;;;;;;5055400;28;20405;-67
2022/06/21 05:06:26;;;;;;;9.43;3.40;;;13.00;99.90;;;;;;5055137;28;20384;-72
2022/06/21 05:08:53;;;;;;;7.40;3.97;;;13.10;99.90;;;;;;5054818;28;20914;-72
2022/06/21 05:11:20;;;;;;;8.83;3.60;;;13.10;99.90;;;;;;5037651;28;20227;-72
2022/06/21 05:13:48;;;;;;;17.70;4.13;;;13.20;99.90;;;;;;5054926;28;20384;-72
2022/06/21 05:16:35;;;;;;;6.17;3.43;;;13.30;99.90;;;;;;5036814;28;20460;-72
2022/06/21 05:19:12;;;;;;;5.90;3.03;;;13.30;99.90;;;;;;5054227;28;20538;-67
2022/06/21 05:21:49;;;;;;;7.40;2.93;;;13.30;99.90;;;;;;5055057;28;20409;-67
2022/06/21 05:24:16;;;;;;;8.13;3.70;;;13.40;99.90;;;;;;5055237;28;20770;-66
2022/06/21 05:27:02;;;;;;;6.43;3.70;;;13.50;99.90;;;;;;5054063;28;20380;-66
2022/06/21 05:30:11;;;;;;;9.80;3.57;;;13.50;99.90;;;;;;5033792;28;20814;-65
2022/06/21 05:32:58;;;;;;;10.03;3.80;;;13.60;99.90;;;;;;5046440;28;20424;-69
2022/06/21 05:35:29;;;;;;;5.60;3.50;;;13.70;99.90;;;;;;5054945;28;20413;-70
2022/06/21 05:37:59;;;;;;;10.10;3.50;;;13.80;99.90;;;;;;5051755;28;20464;-65
2022/06/21 05:40:38;;;;;;;5.87;3.40;;;13.80;99.90;;;;;;5053987;28;20804;-68
2022/06/21 05:43:05;;;;;;;6.30;3.17;;;13.90;99.90;;;;;;5053611;28;20494;-67
2022/06/21 05:45:34;;;;;;;6.13;3.90;;;14.00;99.90;;;;;;5054838;28;20483;-67
2022/06/21 05:48:11;;;;;;;12.27;3.50;;;14.00;99.90;;;;;;5052794;28;20433;-67
2022/06/21 05:50:37;;;;;;;9.53;3.60;;;14.10;99.90;;;;;;5057427;28;20885;-67
2022/06/21 05:53:34;;;;;;;9.97;3.97;;;14.20;99.90;;;;;;5055136;28;20492;-71
2022/06/21 05:56:06;;;;;;;6.43;3.57;;;14.10;99.90;;;;;;5029291;28;20182;-67
2022/06/21 05:58:37;;;;;;;7.40;2.90;;;14.20;99.90;;;;;;5053428;28;20514;-67
2022/06/21 06:01:27;;;;;;;8.00;3.70;;;14.30;99.90;;;;;;5054152;28;20427;-68
2022/06/21 06:03:59;;;;;;;7.30;3.57;;;14.50;99.90;;;;;;5054324;28;20898;-67
2022/06/21 06:06:29;;;;;;;11.37;4.00;;;14.50;99.90;;;;;;5051351;28;20433;-71
2022/06/21 06:09:01;;;;;;;6.70;3.67;;;14.50;99.90;;;;;;5054084;28;20520;-68
2022/06/21 06:11:58;;;;;;;7.30;2.90;;;14.60;98.70;;;;;;5053940;28;20416;-67
2022/06/21 06:14:45;;;;;;;6.30;3.40;;;14.60;90.20;;;;;;5054125;28;20401;-72
2022/06/21 06:17:26;;;;;;;5.03;3.30;;;14.60;84.00;;;;;;5053149;28;20457;-67
2022/06/21 06:20:04;;;;;;;12.20;3.70;;;14.60;72.20;;;;;;5036221;28;20425;-67
2022/06/21 06:22:39;;;;;;;10.73;3.60;;;14.60;48.00;;;;;;5034514;28;20429;-72
2022/06/21 06:25:14;;;;;;;4.20;3.83;;;14.60;36.80;;;;;;5035954;28;20413;-67
2022/06/21 06:28:18;;;;;;;3.50;2.80;;;14.70;29.20;;;;;;5052145;28;20437;-71
2022/06/21 06:30:51;;;;;;;5.10;3.33;;;14.80;16.10;;;;;;5033290;28;20410;-67
2022/06/21 06:33:41;;;;;;;2.97;2.77;;;14.80;1.00;;;;;;5036909;28;20522;-66
2022/06/21 06:36:14;;;;;;;10.50;3.37;;;14.80;1.00;;;;;;5035962;28;20417;-71
2022/06/21 06:38:40;;;;;;;7.30;3.50;;;14.80;1.00;;;;;;5052793;28;20989;-68
2022/06/21 06:41:26;;;;;;;4.83;3.27;;;14.80;1.00;;;;;;5053691;28;20417;-70
2022/06/21 06:43:58;;;;;;;7.40;2.60;;;14.90;1.00;;;;;;5052549;28;20491;-67
2022/06/21 06:46:29;;;;;;;6.77;3.53;;;14.90;1.00;;;;;;5052659;28;20389;-70
2022/06/21 06:49:19;;;;;;;10.83;3.80;;;14.90;1.00;;;;;;5053467;28;21022;-67
2022/06/21 06:52:03;;;;;;;4.17;3.00;;;15.10;1.00;;;;;;5053494;28;20410;-67
2022/06/21 06:54:49;;;;;;;4.17;3.10;;;15.10;1.00;;;;;;5035641;28;20421;-72
2022/06/21 06:57:30;;;;;;;7.03;3.43;;;15.20;1.00;;;;;;5052490;28;20545;-67
2022/06/21 06:59:57;;;;;;;4.03;3.20;;;15.30;1.00;;;;;;5051382;28;20517;-68
2022/06/21 07:02:35;;;;;;;6.60;3.90;;;15.40;1.00;;;;;;5052607;28;20402;-69
2022/06/21 07:05:23;;;;;;;6.33;2.80;;;15.40;1.00;;;;;;5035388;28;20894;-67
2022/06/21 07:07:55;;;;;;;6.73;2.90;;;15.40;1.00;;;;;;5052287;28;20553;-71
2022/06/21 07:10:24;;;;;;;3.97;3.10;;;15.30;1.00;;;;;;5053300;28;20412;-71
2022/06/21 07:12:51;;;;;;;9.10;3.97;;;15.40;1.00;;;;;;5053206;28;20409;-72
2022/06/21 07:15:21;;;;;;;14.33;4.27;;;15.50;1.00;;;;;;5051178;28;20436;-66
2022/06/21 07:17:54;;;;;;;5.63;3.20;;;15.50;1.00;;;;;;5033610;28;20468;-67
2022/06/21 07:20:22;;;;;;;8.23;3.47;;;15.60;1.00;;;;;;5052488;28;20405;-67
2022/06/21 07:22:49;;;;;;;5.37;3.70;;;15.70;1.00;;;;;;5053002;28;20413;-66
2022/06/21 07:25:36;;;;;;;4.00;3.50;;;15.90;1.00;;;;;;5035085;28;20913;-73
2022/06/21 07:28:19;;;;;;;3.80;3.50;;;15.90;1.00;;;;;;5052020;28;20421;-67
2022/06/21 07:30:49;;;;;;;3.90;2.67;;;15.90;1.00;;;;;;5050899;28;20429;-67
2022/06/21 07:33:27;;;;;;;7.90;3.40;;;16.00;1.00;;;;;;5052946;28;20492;-72
2022/06/21 07:36:09;;;;;;;8.47;3.30;;;16.10;1.00;;;;;;5035290;28;20413;-67
2022/06/21 07:38:44;;;;;;;3.63;3.33;;;16.10;99.90;;;;;;5051250;28;20499;-71
2022/06/21 07:41:25;;;;;;;4.73;2.93;;;16.10;99.90;;;;;;5052768;28;20405;-71
2022/06/21 07:43:56;;;;;;;9.87;4.53;;;16.10;99.90;;;;;;5052836;28;20397;-71
2022/06/21 07:46:32;;;;;;;4.03;3.20;;;15.90;99.90;;;;;;5049850;28;20553;-68
2022/06/21 07:49:15;;;;;;;4.50;2.97;;;16.10;99.90;;;;;;5050918;28;20472;-70
2022/06/21 07:51:47;;;;;;;3.90;3.50;;;16.20;99.90;;;;;;5052827;28;20405;-70
2022/06/21 07:54:22;;;;;;;5.47;2.97;;;16.20;99.90;;;;;;5052548;28;20905;-68
2022/06/21 07:56:54;;;;;;;3.13;2.83;;;16.20;99.90;;;;;;5051445;28;20504;-69
2022/06/21 07:59:32;;;;;;;8.13;2.30;;;16.20;99.90;;;;;;5052649;28;20494;-67
2022/06/21 08:08:02;;;;;;;4.30;2.97;;;16.40;99.90;;;;;;5051668;28;20447;-68
2022/06/21 08:10:44;;;;;;;9.97;6.63;;;16.60;99.90;;;;;;5034716;28;20833;-68
2022/06/21 08:13:11;;;;;;;4.53;3.00;;;16.60;99.90;;;;;;5052137;28;20416;-68
2022/06/21 08:15:55;;;;;;;5.13;3.30;;;16.80;99.90;;;;;;5051917;28;20396;-71
2022/06/21 08:18:29;;;;;;;3.80;2.90;;;16.90;99.90;;;;;;5050583;28;20811;-68
2022/06/21 08:21:08;;;;;;;3.57;2.80;;;17.00;99.90;;;;;;5034615;28;20405;-71
2022/06/21 08:23:49;;;;;;;3.27;3.07;;;17.00;99.90;;;;;;5052513;28;20409;-68
2022/06/21 08:26:16;;;;;;;4.50;3.10;;;17.10;99.90;;;;;;5055251;28;20397;-68
2022/06/21 08:29:11;;;;;;;3.33;2.63;;;17.00;99.90;;;;;;5037588;28;20469;-68
2022/06/21 08:31:41;;;;;;;4.47;2.77;;;17.00;99.90;;;;;;5055876;28;20397;-68
2022/06/21 08:34:23;;;;;;;5.00;3.50;;;17.20;99.90;;;;;;5054140;28;20444;-71
2022/06/21 08:36:58;;;;;;;3.10;2.60;;;17.20;99.90;;;;;;5055262;28;20389;-68
2022/06/21 08:39:44;;;;;;;3.87;2.87;;;17.40;99.90;;;;;;5055811;28;20511;-72
2022/06/21 08:42:47;;;;;;;7.03;2.93;;;17.60;99.90;;;;;;5056013;28;20428;-71
2022/06/21 08:45:43;;;;;;;3.80;2.67;;;17.70;99.90;;;;;;5055706;28;20405;-69
2022/06/21 08:48:11;;;;;;;6.93;2.40;;;17.80;99.90;;;;;;5035371;28;20445;-70
2022/06/21 08:50:49;;;;;;;5.13;4.07;;;17.90;99.90;;;;;;5037457;28;20409;-68
2022/06/21 08:53:33;;;;;;;7.73;2.73;;;18.00;99.90;;;;;;5055658;28;20417;-71
2022/06/21 08:56:18;;;;;;;3.53;2.63;;;18.00;99.90;;;;;;5055677;28;20444;-71
2022/06/21 08:59:33;;;;;;;6.80;3.23;;;18.00;99.90;;;;;;5054829;28;20445;-69
2022/06/21 09:02:26;;;;;;;5.30;3.10;;;18.20;99.90;;;;;;5012980;28;20529;-68
2022/06/21 09:05:13;;;;;;;7.60;3.23;;;18.30;99.90;;;;;;5035681;28;20394;-68
2022/06/21 09:07:54;;;;;;;3.03;2.40;;;18.40;99.90;;;;;;5034456;28;20489;-69
2022/06/21 09:10:22;;;;;;;5.47;3.13;;;18.60;99.90;;;;;;5035224;28;20430;-71
2022/06/21 09:12:57;;;;;;;4.70;3.37;;;18.70;99.90;;;;;;5035406;28;20949;-71
2022/06/21 09:15:52;;;;;;;2.73;2.53;;;18.70;99.90;;;;;;5035312;28;20890;-72
2022/06/21 09:18:39;;;;;;;3.63;2.33;;;18.80;99.90;;;;;;5044837;28;20461;-68
2022/06/21 09:21:25;;;;;;;4.60;2.70;;;19.00;99.90;;;;;;5050410;28;20455;-71
2022/06/21 09:24:10;;;;;;;3.00;2.07;;;19.10;99.90;;;;;;5055085;28;20906;-68
2022/06/21 09:26:57;;;;;;;3.73;2.20;;;19.40;99.90;;;;;;5036101;28;20740;-71
2022/06/21 09:29:51;;;;;;;3.10;2.50;;;19.70;99.90;;;;;;5054916;28;20417;-72
2022/06/21 09:32:19;;;;;;;2.20;2.00;;;19.70;99.90;;;;;;5055033;28;20740;-67
2022/06/21 09:35:19;;;;;;;3.80;2.80;;;19.80;99.90;;;;;;5053657;28;20427;-71
2022/06/21 09:38:26;;;;;;;3.00;2.63;;;20.00;99.90;;;;;;5051775;28;20472;-69
2022/06/21 09:41:15;;;;;;;2.07;1.97;;;20.20;99.90;;;;;;5055018;28;20405;-71
2022/06/21 09:43:46;;;;;;;2.13;1.83;;;20.60;99.90;;;;;;5054351;28;20952;-71
2022/06/21 09:46:30;;;;;;;2.77;2.20;;;21.00;99.90;;;;;;5054470;28;20408;-68
2022/06/21 09:49:12;;;;;;;6.57;2.33;;;21.40;99.90;;;;;;5054560;28;20491;-68
2022/06/21 09:51:56;;;;;;;3.03;1.93;;;21.50;99.90;;;;;;5053632;28;20437;-70
2022/06/21 09:54:38;;;;;;;2.07;1.70;;;21.50;99.90;;;;;;5054666;28;20424;-68
2022/06/21 09:57:11;;;;;;;2.97;1.73;;;21.80;99.90;;;;;;5053685;28;20407;-68
2022/06/21 09:59:37;;;;;;;2.20;1.80;;;22.10;99.90;;;;;;5054524;28;20413;-71
2022/06/21 10:02:29;;;;;;;4.57;1.80;;;22.50;99.90;;;;;;5053989;28;20849;-71
2022/06/21 10:04:57;;;;;;;3.43;1.60;;;22.70;99.90;;;;;;5053612;28;20439;-71
2022/06/21 10:07:39;;;;;;;2.30;1.50;;;22.90;99.90;;;;;;5052817;28;20441;-68
2022/06/21 10:10:30;;;;;;;4.40;1.80;;;23.20;99.90;;;;;;5054110;28;20429;-67
2022/06/21 10:13:26;;;;;;;2.47;1.80;;;23.20;98.90;;;;;;5054401;28;20947;-71
2022/06/21 10:16:07;;;;;;;5.13;2.37;;;23.40;99.90;;;;;;5054104;28;20413;-72
2022/06/21 10:18:45;;;;;;;5.33;1.70;;;23.70;97.10;;;;;;5053085;28;20456;-67
2022/06/21 10:21:36;;;;;;;2.17;1.87;;;23.60;97.00;;;;;;5052514;28;20933;-72
2022/06/21 10:24:14;;;;;;;2.70;2.20;;;23.30;96.90;;;;;;5053830;28;20398;-67
2022/06/21 10:26:39;;;;;;;4.20;1.80;;;23.60;97.00;;;;;;5053040;28;20466;-67
2022/06/21 10:29:42;;;;;;;3.00;1.43;;;23.70;97.10;;;;;;5035850;28;20433;-68
2022/06/21 10:32:23;;;;;;;3.57;1.93;;;23.60;97.00;;;;;;5053726;28;20166;-69
2022/06/21 10:35:23;;;;;;;2.90;1.60;;;23.40;90.60;;;;;;5053858;28;20861;-67
2022/06/21 10:38:23;;;;;;;2.30;1.93;;;23.20;93.30;;;;;;5050009;28;20472;-69
2022/06/21 10:41:07;;;;;;;2.43;1.90;;;23.20;93.80;;;;;;5053711;28;20878;-71
2022/06/21 10:44:03;;;;;;;2.17;1.90;;;23.80;92.70;;;;;;5053731;28;20466;-72
2022/06/21 10:46:44;;;;;;;5.70;2.40;;;23.90;91.50;;;;;;5034818;28;20825;-71
2022/06/21 10:49:31;;;;;;;2.90;1.90;;;23.80;87.00;;;;;;5053203;28;20488;-71
2022/06/21 10:52:31;;;;;;;2.90;1.50;;;24.20;93.60;;;;;;5052565;28;20529;-72
2022/06/21 10:55:22;;;;;;;4.20;1.50;;;24.90;80.80;;;;;;5053542;28;20408;-67
2022/06/21 10:58:21;;;;;;;2.73;1.70;;;24.50;73.00;;;;;;5014292;28;20457;-71
2022/06/21 11:01:26;;;;;;;2.50;2.30;;;24.70;73.30;;;;;;5035488;28;20421;-67
2022/06/21 11:03:58;;;;;;;3.27;1.90;;;24.60;73.50;;;;;;5053366;28;20451;-73
2022/06/21 11:06:29;;;;;;;1.90;1.80;;;25.00;76.80;;;;;;5053046;28;20488;-69
2022/06/21 11:09:00;;;;;;;3.67;1.77;;;24.90;68.40;;;;;;5051355;28;20882;-67
2022/06/21 11:11:44;;;;;;;3.87;2.00;;;25.10;61.20;;;;;;5053191;28;20406;-71
2022/06/21 11:14:16;;;;;;;2.40;1.53;;;25.00;59.40;;;;;;5053213;28;20404;-69
2022/06/21 11:17:05;;;;;;;3.20;2.27;;;24.70;53.60;;;;;;5051554;28;20397;-67
2022/06/21 11:19:42;;;;;;;3.30;2.37;;;24.80;50.20;;;;;;5047385;28;20456;-68
2022/06/21 11:22:42;;;;;;;3.40;2.13;;;24.20;46.50;;;;;;5052423;28;20404;-71
2022/06/21 11:25:48;;;;;;;2.80;1.50;;;23.90;46.00;;;;;;5053064;28;20441;-68
2022/06/21 11:28:46;;;;;;;1.87;1.30;;;24.50;50.60;;;;;;4971252;28;20468;-71
2022/06/21 11:31:40;;;;;;;2.30;1.87;;;24.90;41.40;;;;;;5053036;28;20577;-68
2022/06/21 11:34:25;;;;;;;2.80;1.93;;;25.10;38.40;;;;;;5052125;28;20408;-72
2022/06/21 11:37:19;;;;;;;3.13;1.80;;;25.20;36.90;;;;;;5051941;28;20401;-72
2022/06/21 11:40:09;;;;;;;3.60;2.20;;;25.90;33.20;;;;;;5051979;28;20532;-68
2022/06/21 11:42:55;;;;;;;2.40;2.20;;;26.10;32.30;;;;;;5052728;28;20889;-68
2022/06/21 11:45:36;;;;;;;4.50;1.70;;;26.20;31.90;;;;;;5052921;28;20755;-72
2022/06/21 11:48:35;;;;;;;2.33;1.40;;;26.80;33.20;;;;;;5051747;28;20432;-70
2022/06/21 11:51:10;;;;;;;1.60;1.50;;;27.40;33.90;;;;;;5052574;28;20406;-74
2022/06/21 11:54:12;;;;;;;3.57;1.50;;;28.00;25.40;;;;;;5051303;28;20420;-75
2022/06/21 11:56:49;;;;;;;3.00;1.33;;;28.00;15.50;;;;;;5010342;28;20513;-70
2022/06/21 11:59:21;;;;;;;1.73;1.27;;;28.20;14.30;;;;;;5052658;28;20449;-74
2022/06/21 12:02:11;;;;;;;1.30;1.03;;;28.40;8.90;;;;;;5056739;28;20482;-74
2022/06/21 12:04:39;;;;;;;2.60;1.50;;;28.30;1.00;;;;;;5054162;28;20422;-73
2022/06/21 12:07:05;;;;;;;5.73;1.57;;;28.10;1.00;;;;;;5056603;28;20412;-74
2022/06/21 12:09:45;;;;;;;3.20;1.67;;;28.00;1.00;;;;;;5056651;28;20550;-70
2022/06/21 12:12:37;;;;;;;1.83;1.47;;;28.20;1.00;;;;;;5055985;28;20175;-74
2022/06/21 12:15:35;;;;;;;2.23;1.67;;;28.60;4.70;;;;;;5055807;28;20988;-71
2022/06/21 12:18:07;;;;;;;1.60;1.50;;;29.40;1.00;;;;;;5055366;28;20865;-70
2022/06/21 12:21:09;;;;;;;1.60;1.27;;;28.70;1.00;;;;;;5056413;28;20401;-74
2022/06/21 12:23:37;;;;;;;2.80;1.13;;;28.70;1.00;;;;;;5055077;28;20519;-71
2022/06/21 12:26:05;;;;;;;1.70;1.23;;;28.30;1.00;;;;;;5056269;28;20396;-70
2022/06/21 12:28:33;;;;;;;4.03;1.80;;;28.30;1.00;;;;;;5055296;28;20436;-70
2022/06/21 12:31:09;;;;;;;1.80;1.50;;;28.60;1.00;;;;;;5055510;28;20496;-74
2022/06/21 12:33:37;;;;;;;3.00;1.70;;;29.00;1.00;;;;;;5056106;28;20412;-75
2022/06/21 12:36:03;;;;;;;3.73;1.50;;;29.00;1.00;;;;;;5055297;28;20475;-69
2022/06/21 12:38:40;;;;;;;2.37;1.53;;;29.00;1.00;;;;;;5047122;28;20560;-70
2022/06/21 12:41:33;;;;;;;2.50;1.80;;;28.90;1.00;;;;;;5055829;28;20762;-72
2022/06/21 12:44:08;;;;;;;3.10;1.33;;;28.90;1.00;;;;;;5055918;28;20413;-74
2022/06/21 12:46:59;;;;;;;2.27;1.37;;;29.00;1.00;;;;;;5054798;28;20413;-72
2022/06/21 12:49:25;;;;;;;2.20;1.47;;;29.30;1.00;;;;;;5055544;28;20458;-74
2022/06/21 12:52:00;;;;;;;1.83;1.43;;;28.60;1.00;;;;;;5055877;28;20405;-71
2022/06/21 12:54:38;;;;;;;3.57;1.70;;;28.00;1.00;;;;;;5055895;28;20270;-74
2022/06/21 12:57:32;;;;;;;3.43;1.20;;;27.90;1.00;;;;;;5055088;28;20411;-70
2022/06/21 13:00:23;;;;;;;5.57;1.67;;;27.70;1.00;;;;;;5055502;28;20786;-70
2022/06/21 13:03:16;;;;;;;2.70;1.60;;;27.50;1.00;;;;;;5055569;28;20405;-70
2022/06/21 13:06:23;;;;;;;2.13;1.70;;;27.80;1.00;;;;;;5054994;28;20401;-70
2022/06/21 13:08:49;;;;;;;2.80;1.43;;;28.50;1.00;;;;;;5054990;28;20425;-70
2022/06/21 13:11:36;;;;;;;1.67;1.20;;;28.10;1.00;;;;;;5037279;28;20410;-73
2022/06/21 13:14:24;;;;;;;2.03;1.30;;;28.30;1.00;;;;;;5055378;28;20639;-71
2022/06/21 13:17:05;;;;;;;4.60;1.80;;;28.60;1.00;;;;;;5054563;28;20750;-74
2022/06/21 13:20:14;;;;;;;2.93;1.47;;;29.10;1.00;;;;;;5055047;28;20483;-70
2022/06/21 13:23:07;;;;;;;2.53;1.10;;;29.90;1.00;;;;;;4983971;28;20875;-71
2022/06/21 13:25:52;;;;;;;1.97;1.10;;;30.30;1.00;;;;;;5054453;28;20475;-73
2022/06/21 13:28:33;;;;;;;1.90;1.20;;;29.60;1.00;;;;;;5036489;28;20983;-70
2022/06/21 13:31:16;;;;;;;2.60;1.17;;;30.40;1.00;;;;;;5055050;28;20409;-74
2022/06/21 13:34:06;;;;;;;2.13;1.23;;;30.70;1.00;;;;;;5054988;28;20397;-74
2022/06/21 13:36:43;;;;;;;2.27;1.40;;;29.90;1.00;;;;;;5054323;28;20410;-72
2022/06/21 13:39:41;;;;;;;3.43;1.90;;;28.40;1.00;;;;;;5054917;28;20543;-74
2022/06/21 13:45:12;;;;;;;2.40;1.43;;;26.70;1.00;;;;;;5054376;28;20540;-69
2022/06/21 13:47:56;;;;;;;2.13;1.30;;;26.40;1.00;;;;;;5054018;28;20797;-71
2022/06/21 13:50:32;;;;;;;3.67;1.47;;;25.90;1.00;;;;;;5054704;28;20405;-72
2022/06/21 13:53:06;;;;;;;2.00;1.60;;;25.60;1.00;;;;;;5054711;28;20402;-69
2022/06/21 13:55:47;;;;;;;3.00;1.40;;;25.40;1.00;;;;;;5054630;28;20398;-71
2022/06/21 13:58:34;;;;;;;2.20;1.63;;;25.00;1.00;;;;;;5053655;28;21034;-68
2022/06/21 14:01:28;;;;;;;1.67;1.57;;;25.20;1.00;;;;;;5054588;28;20401;-72